Time;durP1;ratioP1;P1;durP2;ratioP2;P2;SDS_P1;SDS_P2;PMS_P1;PMS_P2;Temp;Humidity;BMP_temperature;BMP_pressure;BME280_temperature;BME280_humidity;BME280_pressure;Samples;Min_cycle;Max_cycle;Signal;HPM_P1;HPM_P2
2022/09/02 00:01:40;;;;;;;43.83;41.60;;;11.40;99.90;;;;;;5028175;28;20041;-81
2022/09/02 00:04:17;;;;;;;44.30;42.35;;;11.30;99.90;;;;;;5022747;28;20022;-81
2022/09/02 00:06:44;;;;;;;39.78;38.03;;;11.30;99.90;;;;;;5015764;28;20041;-81
2022/09/02 00:09:12;;;;;;;43.72;41.83;;;11.30;99.90;;;;;;5021125;28;20030;-81
2022/09/02 00:11:39;;;;;;;42.00;40.10;;;11.20;99.90;;;;;;5019472;28;20037;-81
2022/09/02 00:14:09;;;;;;;58.10;55.63;;;11.30;99.90;;;;;;5024288;28;20134;-81
2022/09/02 00:16:36;;;;;;;26.67;25.45;;;11.30;99.90;;;;;;5021367;28;20029;-81
2022/09/02 00:19:02;;;;;;;43.35;41.45;;;11.30;99.90;;;;;;5027570;28;20493;-81
2022/09/02 00:21:32;;;;;;;48.38;46.20;;;11.30;99.90;;;;;;5026673;28;20549;-82
2022/09/02 00:23:58;;;;;;;52.10;49.88;;;11.20;99.90;;;;;;5023523;28;20026;-81
2022/09/02 00:26:24;;;;;;;45.20;43.30;;;11.20;99.90;;;;;;5028338;28;20080;-81
2022/09/02 00:28:50;;;;;;;51.95;49.67;;;11.30;99.90;;;;;;5025721;28;20036;-81
2022/09/02 00:31:16;;;;;;;65.90;63.10;;;11.20;99.90;;;;;;5025839;28;20033;-81
2022/09/02 00:33:42;;;;;;;43.15;41.10;;;11.20;99.90;;;;;;5011814;28;20037;-82
2022/09/02 00:36:08;;;;;;;66.28;63.25;;;11.10;99.90;;;;;;5029526;28;20033;-81
2022/09/02 00:38:35;;;;;;;200.18;189.57;;;11.00;99.90;;;;;;5028433;28;20427;-81
2022/09/02 00:41:04;;;;;;;68.10;65.18;;;11.00;99.90;;;;;;5029913;28;20034;-81
2022/09/02 00:43:54;;;;;;;50.97;48.78;;;11.00;99.90;;;;;;5025492;28;20025;-81
2022/09/02 00:46:23;;;;;;;52.08;49.92;;;10.90;99.90;;;;;;5028236;28;20017;-81
2022/09/02 00:49:09;;;;;;;57.47;54.75;;;10.80;99.90;;;;;;5012579;28;20082;-81
2022/09/02 00:51:54;;;;;;;51.83;49.42;;;10.90;99.90;;;;;;5024523;28;20029;-81
2022/09/02 00:54:22;;;;;;;82.65;79.25;;;10.80;99.90;;;;;;5026302;28;20079;-81
2022/09/02 00:56:49;;;;;;;48.90;46.67;;;10.80;99.90;;;;;;5030493;28;20037;-81
2022/09/02 00:59:29;;;;;;;45.70;43.45;;;10.80;99.90;;;;;;5030478;28;20056;-81
2022/09/02 01:01:54;;;;;;;46.55;44.22;;;10.80;99.90;;;;;;5026024;28;20054;-81
2022/09/02 01:04:20;;;;;;;46.55;44.60;;;10.80;99.90;;;;;;5031300;28;20066;-81
2022/09/02 01:06:47;;;;;;;52.83;50.50;;;10.70;99.90;;;;;;5030870;28;20029;-81
2022/09/02 01:09:14;;;;;;;52.55;49.80;;;10.70;99.90;;;;;;5026936;28;20072;-81
2022/09/02 01:11:49;;;;;;;46.50;44.35;;;10.70;99.90;;;;;;5025563;28;20037;-81
2022/09/02 01:14:15;;;;;;;51.33;49.08;;;10.70;99.90;;;;;;5024048;28;20053;-81
2022/09/02 01:16:53;;;;;;;48.67;46.40;;;10.60;99.90;;;;;;5037236;28;20034;-82
2022/09/02 01:19:27;;;;;;;54.10;51.83;;;10.60;99.90;;;;;;5043944;28;20025;-81
2022/09/02 01:21:54;;;;;;;48.65;46.58;;;10.50;99.90;;;;;;5032375;28;20059;-81
2022/09/02 01:24:22;;;;;;;47.80;45.67;;;10.40;99.90;;;;;;5030831;28;20489;-81
2022/09/02 01:26:51;;;;;;;33.15;31.60;;;10.50;99.90;;;;;;5024383;28;20034;-81
2022/09/02 01:29:17;;;;;;;49.63;47.47;;;10.50;99.90;;;;;;5024556;28;20772;-81
2022/09/02 01:31:43;;;;;;;53.47;51.08;;;10.50;99.90;;;;;;5028218;28;20038;-81
2022/09/02 01:34:10;;;;;;;49.83;47.42;;;10.50;99.90;;;;;;5031075;28;20029;-81
2022/09/02 01:36:40;;;;;;;58.00;55.45;;;10.50;99.90;;;;;;5025172;28;20033;-81
2022/09/02 01:39:07;;;;;;;37.30;35.22;;;10.30;99.90;;;;;;5026893;28;20046;-81
2022/09/02 01:41:33;;;;;;;42.42;40.42;;;10.30;99.90;;;;;;5011918;28;20424;-81
2022/09/02 01:43:58;;;;;;;52.70;50.25;;;10.40;99.90;;;;;;5027963;28;20033;-81
2022/09/02 01:46:24;;;;;;;82.65;79.25;;;10.30;99.90;;;;;;5025550;28;20041;-81
2022/09/02 01:48:50;;;;;;;54.10;51.70;;;10.30;99.90;;;;;;5025522;28;20037;-82
2022/09/02 01:51:19;;;;;;;50.53;47.95;;;10.30;99.90;;;;;;5007711;28;20502;-81
2022/09/02 01:53:46;;;;;;;55.50;52.88;;;10.20;99.90;;;;;;5025793;28;20060;-81
2022/09/02 01:56:12;;;;;;;48.65;46.55;;;10.20;99.90;;;;;;5013519;28;20040;-81
2022/09/02 01:58:38;;;;;;;52.83;50.45;;;10.10;99.90;;;;;;5013362;28;20108;-81
2022/09/02 02:01:04;;;;;;;59.97;57.42;;;10.20;99.90;;;;;;5028530;28;20052;-82
2022/09/02 02:03:30;;;;;;;68.20;65.13;;;10.20;99.90;;;;;;5026160;28;20132;-81
2022/09/02 02:05:55;;;;;;;56.47;53.38;;;10.20;99.90;;;;;;5023868;28;20028;-81
2022/09/02 02:08:22;;;;;;;45.55;43.50;;;10.10;99.90;;;;;;5027905;28;20148;-82
2022/09/02 02:10:48;;;;;;;66.00;63.13;;;10.10;99.90;;;;;;5029480;28;20727;-81
2022/09/02 02:13:15;;;;;;;55.10;52.65;;;10.10;99.90;;;;;;5025885;28;20040;-81
2022/09/02 02:15:42;;;;;;;63.45;60.38;;;10.10;99.90;;;;;;5028356;28;20627;-81
2022/09/02 02:18:09;;;;;;;78.88;75.50;;;10.10;99.90;;;;;;5029431;28;20025;-81
2022/09/02 02:20:35;;;;;;;74.53;71.28;;;10.10;99.90;;;;;;5027802;28;20105;-81
2022/09/02 02:23:02;;;;;;;59.33;56.65;;;10.10;99.90;;;;;;5024444;28;20063;-82
2022/09/02 02:25:28;;;;;;;85.47;81.90;;;10.00;99.90;;;;;;5018072;28;20029;-81
2022/09/02 02:27:53;;;;;;;69.85;66.75;;;10.00;99.90;;;;;;5023184;28;20503;-81
2022/09/02 02:30:19;;;;;;;84.07;80.57;;;10.00;99.90;;;;;;5024037;28;20390;-81
2022/09/02 02:32:46;;;;;;;86.50;82.90;;;10.00;99.90;;;;;;5019650;28;20382;-81
2022/09/02 02:35:15;;;;;;;80.60;77.15;;;10.00;99.90;;;;;;5020962;28;20521;-81
2022/09/02 02:37:40;;;;;;;79.15;75.63;;;9.90;99.90;;;;;;5024373;28;20085;-82
2022/09/02 02:40:07;;;;;;;124.13;118.72;;;9.90;99.90;;;;;;5018564;28;20041;-80
2022/09/02 02:42:34;;;;;;;157.15;150.98;;;9.90;99.90;;;;;;5018192;28;20145;-81
2022/09/02 02:45:00;;;;;;;139.13;133.40;;;9.80;99.90;;;;;;5028199;28;20022;-81
2022/09/02 02:47:26;;;;;;;120.88;115.22;;;9.80;99.90;;;;;;5023918;28;20040;-81
2022/09/02 02:49:52;;;;;;;97.22;92.80;;;9.80;99.90;;;;;;5020249;28;20751;-81
2022/09/02 02:52:18;;;;;;;140.10;133.93;;;9.80;99.90;;;;;;5024990;28;20037;-81
2022/09/02 02:54:44;;;;;;;105.35;100.82;;;9.80;99.90;;;;;;5025980;28;20033;-81
2022/09/02 02:57:10;;;;;;;94.40;90.47;;;9.80;99.90;;;;;;5024262;28;20037;-81
2022/09/02 02:59:36;;;;;;;55.08;52.30;;;9.70;99.90;;;;;;5026068;28;20061;-81
2022/09/02 03:02:03;;;;;;;94.13;90.22;;;9.80;99.90;;;;;;5022861;28;20065;-81
2022/09/02 03:04:29;;;;;;;108.57;103.93;;;9.80;99.90;;;;;;5022664;28;20068;-80
2022/09/02 03:06:55;;;;;;;119.30;114.32;;;9.80;99.90;;;;;;5023462;28;20056;-81
2022/09/02 03:09:21;;;;;;;108.57;103.55;;;9.80;99.90;;;;;;5027757;28;20552;-81
2022/09/02 03:11:47;;;;;;;65.40;62.08;;;9.70;99.90;;;;;;5030122;28;20366;-81
2022/09/02 03:14:14;;;;;;;185.23;177.30;;;9.80;99.90;;;;;;5018239;28;20034;-81
2022/09/02 03:16:40;;;;;;;77.53;74.13;;;9.80;99.90;;;;;;5029965;28;20029;-81
2022/09/02 03:19:06;;;;;;;127.43;121.90;;;9.70;99.90;;;;;;5025161;28;20048;-81
2022/09/02 03:21:32;;;;;;;81.13;77.38;;;9.70;99.90;;;;;;5019274;28;20048;-82
2022/09/02 03:23:57;;;;;;;85.85;82.15;;;9.70;99.90;;;;;;5029893;28;20109;-81
2022/09/02 03:26:24;;;;;;;41.13;39.08;;;9.80;99.90;;;;;;5028307;28;20220;-81
2022/09/02 03:28:54;;;;;;;102.10;97.53;;;9.70;99.90;;;;;;5024956;28;20025;-82
2022/09/02 03:31:22;;;;;;;128.70;122.63;;;9.70;99.90;;;;;;5019598;28;20033;-81
2022/09/02 03:33:48;;;;;;;76.65;73.05;;;9.70;99.90;;;;;;5026644;28;20040;-80
2022/09/02 03:36:23;;;;;;;147.27;141.07;;;9.70;99.90;;;;;;5021439;28;20037;-81
2022/09/02 03:38:49;;;;;;;114.22;109.32;;;9.60;99.90;;;;;;5022647;28;20036;-81
2022/09/02 03:41:15;;;;;;;89.22;84.88;;;9.60;99.90;;;;;;5042854;28;20343;-81
2022/09/02 03:43:40;;;;;;;171.27;163.82;;;9.60;99.90;;;;;;5028745;28;20672;-81
2022/09/02 03:46:08;;;;;;;177.23;169.93;;;9.60;99.90;;;;;;5025816;28;20220;-79
2022/09/02 03:48:33;;;;;;;130.32;124.47;;;9.60;99.90;;;;;;5027869;28;20021;-80
2022/09/02 03:51:01;;;;;;;101.13;96.25;;;9.60;99.90;;;;;;5027857;28;20049;-80
2022/09/02 03:53:27;;;;;;;87.72;83.40;;;9.60;99.90;;;;;;5021848;28;20025;-80
2022/09/02 03:55:54;;;;;;;166.85;159.82;;;9.60;99.90;;;;;;5029453;28;20029;-81
2022/09/02 03:58:21;;;;;;;218.50;209.07;;;9.60;99.90;;;;;;5029557;28;20025;-81
2022/09/02 04:00:53;;;;;;;62.13;59.00;;;9.50;99.90;;;;;;5025139;28;20114;-81
2022/09/02 04:03:19;;;;;;;131.68;126.18;;;9.50;99.90;;;;;;5022093;28;20045;-81
2022/09/02 04:05:49;;;;;;;172.70;165.27;;;9.50;99.90;;;;;;5024430;28;20026;-81
2022/09/02 04:08:16;;;;;;;158.50;151.60;;;9.50;99.90;;;;;;5025061;28;20033;-81
2022/09/02 04:10:42;;;;;;;132.15;126.28;;;9.50;99.90;;;;;;5017162;28;20030;-81
2022/09/02 04:13:07;;;;;;;170.30;163.05;;;9.50;99.90;;;;;;5022992;28;20079;-82
2022/09/02 04:15:37;;;;;;;171.10;163.70;;;9.50;99.90;;;;;;5020474;28;20049;-81
2022/09/02 04:21:25;;;;;;;107.88;102.90;;;9.50;99.90;;;;;;5022940;28;20076;-81
2022/09/02 04:23:51;;;;;;;117.93;112.40;;;9.50;99.90;;;;;;5024105;28;20037;-81
2022/09/02 04:26:18;;;;;;;268.27;256.45;;;9.40;99.90;;;;;;5022011;28;20018;-81
2022/09/02 04:28:45;;;;;;;270.77;249.55;;;9.40;99.90;;;;;;5023064;28;20027;-81
2022/09/02 04:31:12;;;;;;;168.38;161.05;;;9.40;99.90;;;;;;5025386;28;20121;-81
2022/09/02 04:33:38;;;;;;;137.43;130.90;;;9.50;99.90;;;;;;5024369;28;20025;-81
2022/09/02 04:36:06;;;;;;;174.80;166.43;;;9.50;99.90;;;;;;5018000;28;20044;-81
2022/09/02 04:38:32;;;;;;;153.52;146.93;;;9.50;99.90;;;;;;5026532;28;20095;-81
2022/09/02 04:40:58;;;;;;;154.60;147.48;;;9.50;99.90;;;;;;5026494;28;20500;-81
2022/09/02 04:43:24;;;;;;;137.43;131.40;;;9.50;99.90;;;;;;5027634;28;20108;-81
2022/09/02 04:45:50;;;;;;;150.02;143.77;;;9.40;99.90;;;;;;5027090;28;20040;-81
2022/09/02 04:48:17;;;;;;;163.18;155.90;;;9.40;99.90;;;;;;5028430;28;20022;-81
2022/09/02 04:50:44;;;;;;;239.10;228.90;;;9.40;99.90;;;;;;5014882;28;20026;-82
2022/09/02 04:53:10;;;;;;;154.68;147.77;;;9.40;99.90;;;;;;5024168;28;20031;-80
2022/09/02 04:55:41;;;;;;;151.32;144.75;;;9.50;99.90;;;;;;5025414;28;20021;-81
2022/09/02 04:58:08;;;;;;;177.07;169.02;;;9.50;99.90;;;;;;5017502;28;20038;-81
2022/09/02 05:00:35;;;;;;;180.25;172.10;;;9.50;99.90;;;;;;5009892;28;20132;-81
2022/09/02 05:03:03;;;;;;;168.82;161.50;;;9.50;99.90;;;;;;5014433;28;20029;-81
2022/09/02 05:05:29;;;;;;;122.03;116.78;;;9.50;99.90;;;;;;5008348;28;20062;-81
2022/09/02 05:07:55;;;;;;;101.50;96.82;;;9.60;99.90;;;;;;5019178;28;20057;-82
2022/09/02 05:10:21;;;;;;;208.70;199.50;;;9.60;99.90;;;;;;5022565;28;20424;-81
2022/09/02 05:12:47;;;;;;;219.80;209.77;;;9.70;99.90;;;;;;5017835;28;20030;-81
2022/09/02 05:15:12;;;;;;;168.23;160.68;;;9.60;99.90;;;;;;5026544;28;20048;-81
2022/09/02 05:17:38;;;;;;;168.27;160.80;;;9.70;99.90;;;;;;5016274;28;20038;-82
2022/09/02 05:20:07;;;;;;;173.07;165.52;;;9.70;99.90;;;;;;5008149;28;20053;-79
2022/09/02 05:22:34;;;;;;;412.52;386.33;;;9.70;99.90;;;;;;5016404;28;20045;-79
2022/09/02 05:25:00;;;;;;;194.20;185.63;;;9.70;99.90;;;;;;5018182;28;20490;-80
2022/09/02 05:27:26;;;;;;;84.38;80.72;;;9.80;99.90;;;;;;5029800;28;20144;-79
2022/09/02 05:29:58;;;;;;;192.45;183.95;;;9.90;99.90;;;;;;5026266;28;20397;-79
2022/09/02 05:32:25;;;;;;;156.32;149.75;;;9.90;99.90;;;;;;5024024;28;20532;-79
2022/09/02 05:34:52;;;;;;;100.85;96.00;;;9.90;99.90;;;;;;5032463;28;20038;-79
2022/09/02 05:37:17;;;;;;;180.45;172.48;;;9.90;99.90;;;;;;5023210;28;20501;-80
2022/09/02 05:39:43;;;;;;;253.98;242.32;;;10.00;99.90;;;;;;5019712;28;20078;-80
2022/09/02 05:42:09;;;;;;;325.58;307.33;;;10.00;99.90;;;;;;5004258;28;20034;-81
2022/09/02 05:44:36;;;;;;;291.98;279.05;;;10.00;99.90;;;;;;5008236;28;20053;-81
2022/09/02 05:47:02;;;;;;;264.98;253.57;;;10.00;99.90;;;;;;5027444;28;20021;-80
2022/09/02 05:49:30;;;;;;;131.40;125.65;;;10.00;99.90;;;;;;5030835;28;20029;-84
2022/09/02 05:51:58;;;;;;;221.70;211.85;;;10.10;99.90;;;;;;5015819;28;20525;-80
2022/09/02 05:54:34;;;;;;;136.82;130.88;;;10.20;99.90;;;;;;5020794;28;20038;-80
2022/09/02 05:57:03;;;;;;;151.52;144.90;;;10.30;99.90;;;;;;5020244;28;20726;-80
2022/09/02 05:59:35;;;;;;;178.15;170.23;;;10.30;99.90;;;;;;5028982;28;20017;-80
2022/09/02 06:02:01;;;;;;;323.48;303.52;;;10.30;99.90;;;;;;5022787;28;20064;-80
2022/09/02 06:04:27;;;;;;;171.45;164.15;;;10.30;99.90;;;;;;5000924;28;20502;-80
2022/09/02 06:06:53;;;;;;;240.80;229.32;;;10.30;99.90;;;;;;5026021;28;20044;-80
2022/09/02 06:09:21;;;;;;;165.90;158.80;;;10.40;99.90;;;;;;5027997;28;20033;-81
2022/09/02 06:11:50;;;;;;;232.38;222.60;;;10.50;99.90;;;;;;5025311;28;20021;-80
2022/09/02 06:14:23;;;;;;;202.60;193.65;;;10.50;99.90;;;;;;5029003;28;20033;-80
2022/09/02 06:16:50;;;;;;;161.13;154.43;;;10.60;99.90;;;;;;5017382;28;20512;-80
2022/09/02 06:19:17;;;;;;;177.52;169.65;;;10.70;99.90;;;;;;5019407;28;20044;-80
2022/09/02 06:21:42;;;;;;;222.45;207.23;;;10.80;99.90;;;;;;5029671;28;20121;-80
2022/09/02 06:24:10;;;;;;;288.17;276.27;;;10.70;99.90;;;;;;5021665;28;20124;-80
2022/09/02 06:26:37;;;;;;;61.03;58.03;;;10.70;99.90;;;;;;5022718;28;20021;-80
2022/09/02 06:29:05;;;;;;;124.60;118.82;;;10.80;99.90;;;;;;5021940;28;20515;-81
2022/09/02 06:31:31;;;;;;;304.13;281.73;;;10.90;99.90;;;;;;5024649;28;20147;-81
2022/09/02 06:33:57;;;;;;;184.35;172.75;;;10.90;99.90;;;;;;5019600;28;20120;-81
2022/09/02 06:36:25;;;;;;;96.35;91.82;;;11.00;99.90;;;;;;5027638;28;20040;-81
2022/09/02 06:38:53;;;;;;;109.72;104.68;;;11.10;99.90;;;;;;5022590;28;20497;-81
2022/09/02 06:41:27;;;;;;;41.97;39.92;;;11.10;99.90;;;;;;5024236;28;20037;-80
2022/09/02 06:43:55;;;;;;;37.35;35.42;;;11.20;99.90;;;;;;5024847;28;20121;-81
2022/09/02 06:46:26;;;;;;;83.55;79.78;;;11.30;99.90;;;;;;5014351;28;20041;-81
2022/09/02 06:48:52;;;;;;;122.10;116.97;;;11.40;99.90;;;;;;5024668;28;20082;-80
2022/09/02 06:51:27;;;;;;;102.32;97.82;;;11.40;99.90;;;;;;5025670;28;20068;-81
2022/09/02 06:53:53;;;;;;;114.57;109.40;;;11.60;99.90;;;;;;5017684;28;20040;-81
2022/09/02 06:56:18;;;;;;;168.32;160.93;;;11.70;99.90;;;;;;5020107;28;20033;-80
2022/09/02 06:58:44;;;;;;;131.52;125.57;;;11.80;99.90;;;;;;5020680;28;20408;-80
2022/09/02 07:01:20;;;;;;;130.57;125.03;;;11.80;99.90;;;;;;5026549;28;20400;-81
2022/09/02 07:06:36;;;;;;;134.00;128.18;;;11.90;99.90;;;;;;5023485;28;20060;-81
2022/09/02 07:09:05;;;;;;;155.10;148.57;;;12.00;99.90;;;;;;5024240;28;20036;-80
2022/09/02 07:11:31;;;;;;;87.63;83.95;;;12.20;99.90;;;;;;5025879;28;20048;-80
2022/09/02 07:14:00;;;;;;;143.75;137.07;;;12.30;99.90;;;;;;5027587;28;20029;-81
2022/09/02 07:16:27;;;;;;;118.57;113.47;;;12.60;99.90;;;;;;5020139;28;20037;-80
2022/09/02 07:18:54;;;;;;;77.63;73.93;;;12.80;99.90;;;;;;5021403;28;20034;-81
2022/09/02 07:21:19;;;;;;;101.13;96.90;;;12.90;99.90;;;;;;5008865;28;20045;-80
2022/09/02 07:23:45;;;;;;;47.72;45.47;;;12.90;99.90;;;;;;5025372;28;20033;-81
2022/09/02 07:26:12;;;;;;;56.25;53.78;;;12.90;99.90;;;;;;5019220;28;20030;-80
2022/09/02 07:28:38;;;;;;;43.90;41.70;;;12.90;99.90;;;;;;5041347;28;20028;-80
2022/09/02 07:31:11;;;;;;;82.45;78.15;;;13.00;99.90;;;;;;5026785;28;20038;-80
2022/09/02 07:33:37;;;;;;;61.85;59.25;;;13.00;99.90;;;;;;5025611;28;20045;-80
2022/09/02 07:36:09;;;;;;;194.00;183.52;;;13.10;99.90;;;;;;5021685;28;20110;-81
2022/09/02 07:38:35;;;;;;;62.03;59.05;;;13.00;99.90;;;;;;5008384;28;20163;-80
2022/09/02 07:41:01;;;;;;;43.47;41.25;;;13.30;99.90;;;;;;5019163;28;20063;-80
2022/09/02 07:43:30;;;;;;;35.58;33.88;;;13.40;99.90;;;;;;5024647;28;20152;-81
2022/09/02 07:45:56;;;;;;;28.52;26.90;;;13.60;99.90;;;;;;5023386;28;20029;-80
2022/09/02 07:48:22;;;;;;;35.13;32.95;;;13.70;99.90;;;;;;5024078;28;20660;-80
2022/09/02 07:50:48;;;;;;;31.65;30.15;;;13.70;99.90;;;;;;5028243;28;20044;-81
2022/09/02 07:53:15;;;;;;;45.05;42.92;;;13.70;99.90;;;;;;5001565;28;20025;-80
2022/09/02 07:55:42;;;;;;;36.58;34.80;;;13.80;99.90;;;;;;5017159;28;20027;-81
2022/09/02 07:58:08;;;;;;;18.90;17.20;;;13.80;99.90;;;;;;5018638;28;20070;-81
2022/09/02 08:00:34;;;;;;;62.13;59.20;;;14.00;99.90;;;;;;5015807;28;20035;-81
2022/09/02 08:03:01;;;;;;;20.75;19.40;;;14.20;99.90;;;;;;5019132;28;20037;-80
2022/09/02 08:05:28;;;;;;;17.20;15.93;;;14.30;99.90;;;;;;5021600;28;20049;-81
2022/09/02 08:07:53;;;;;;;18.02;16.52;;;14.40;99.90;;;;;;5025293;28;20108;-81
2022/09/02 08:10:19;;;;;;;22.30;21.08;;;14.50;99.90;;;;;;5010616;28;20116;-81
2022/09/02 08:12:46;;;;;;;26.77;25.42;;;14.40;99.90;;;;;;4989447;28;20038;-80
2022/09/02 08:15:14;;;;;;;27.52;26.05;;;14.50;99.90;;;;;;5028353;28;20041;-81
2022/09/02 08:17:40;;;;;;;20.73;19.60;;;14.80;99.90;;;;;;5012089;28;20457;-81
2022/09/02 08:20:13;;;;;;;19.80;18.67;;;14.90;99.90;;;;;;5025328;28;20037;-81
2022/09/02 08:22:39;;;;;;;20.70;19.33;;;14.80;99.90;;;;;;5017727;28;20087;-81
2022/09/02 08:25:06;;;;;;;17.55;16.45;;;14.80;99.90;;;;;;5015088;28;20056;-81
2022/09/02 08:27:32;;;;;;;20.83;19.65;;;15.00;99.90;;;;;;5016699;28;20041;-80
2022/09/02 08:29:58;;;;;;;19.27;18.13;;;15.10;99.90;;;;;;5022245;28;20034;-81
2022/09/02 08:32:24;;;;;;;19.75;18.63;;;15.20;99.90;;;;;;4997483;28;20565;-81
2022/09/02 08:34:50;;;;;;;28.13;26.50;;;15.40;99.90;;;;;;5015116;28;20046;-81
2022/09/02 08:37:17;;;;;;;18.10;17.02;;;15.40;99.90;;;;;;5006278;28;20088;-81
2022/09/02 08:39:44;;;;;;;16.13;15.20;;;15.70;99.90;;;;;;5008284;28;20064;-81
2022/09/02 08:42:18;;;;;;;20.23;19.17;;;15.80;99.90;;;;;;5023548;28;20087;-81
2022/09/02 08:44:44;;;;;;;17.13;16.15;;;16.10;99.90;;;;;;5015680;28;20111;-80
2022/09/02 08:47:17;;;;;;;13.40;12.50;;;16.10;99.90;;;;;;5015400;28;20029;-80
2022/09/02 08:49:47;;;;;;;16.23;15.27;;;16.30;99.90;;;;;;5016872;28;20652;-81
2022/09/02 08:52:38;;;;;;;14.80;13.88;;;16.20;99.90;;;;;;5017659;28;20091;-81
2022/09/02 08:55:06;;;;;;;16.88;15.68;;;16.30;99.90;;;;;;5008024;28;20045;-81
2022/09/02 08:57:32;;;;;;;19.05;17.90;;;16.50;99.90;;;;;;5022733;28;20069;-81
2022/09/02 09:00:00;;;;;;;15.82;14.65;;;16.60;99.90;;;;;;5007187;28;20033;-81
2022/09/02 09:02:46;;;;;;;15.75;14.68;;;16.80;99.90;;;;;;5025724;28;20092;-81
2022/09/02 09:05:38;;;;;;;18.63;17.52;;;17.00;99.90;;;;;;5014769;28;20030;-81
2022/09/02 09:08:39;;;;;;;18.35;17.27;;;17.20;99.90;;;;;;5023972;28;20044;-80
2022/09/02 09:11:10;;;;;;;;;;;17.20;98.70;;;;;;5019659;28;20038;-81
2022/09/02 09:14:09;;;;;;;14.48;13.48;;;17.40;99.90;;;;;;5027549;28;19913;-81
2022/09/02 09:16:54;;;;;;;17.55;16.55;;;17.60;99.90;;;;;;5029712;28;20029;-81
2022/09/02 09:19:26;;;;;;;20.17;19.08;;;17.70;99.80;;;;;;5019746;28;20036;-78
2022/09/02 09:21:53;;;;;;;16.05;15.13;;;17.70;97.60;;;;;;5021210;28;20030;-79
2022/09/02 09:24:41;;;;;;;15.80;14.80;;;17.80;98.50;;;;;;5019406;28;20025;-79
2022/09/02 09:27:33;;;;;;;17.85;16.75;;;18.00;99.40;;;;;;5028357;28;20468;-79
2022/09/02 09:30:01;;;;;;;14.95;14.05;;;18.20;98.30;;;;;;5025316;28;20066;-79
2022/09/02 09:32:36;;;;;;;15.82;14.90;;;18.30;98.70;;;;;;5026208;28;20053;-80
2022/09/02 09:35:10;;;;;;;13.07;12.25;;;18.20;94.50;;;;;;5021874;28;20030;-79
2022/09/02 09:37:42;;;;;;;11.77;11.05;;;18.10;94.50;;;;;;5027257;28;20124;-79
2022/09/02 09:40:22;;;;;;;14.68;13.57;;;18.40;96.00;;;;;;5027060;28;20767;-79
2022/09/02 09:43:08;;;;;;;11.93;11.13;;;18.60;94.60;;;;;;5027882;28;20076;-79
2022/09/02 09:45:35;;;;;;;16.48;15.38;;;19.00;95.60;;;;;;5023544;28;20034;-78
2022/09/02 09:48:26;;;;;;;14.68;13.68;;;19.00;93.40;;;;;;5024309;28;20041;-79
2022/09/02 09:50:55;;;;;;;19.73;18.70;;;19.00;91.30;;;;;;5022500;28;20040;-79
2022/09/02 09:53:23;;;;;;;23.42;22.33;;;19.10;90.30;;;;;;5024228;28;20033;-79
2022/09/02 09:56:04;;;;;;;15.15;14.27;;;19.10;90.70;;;;;;5020746;28;20037;-79
2022/09/02 09:58:42;;;;;;;11.73;10.80;;;19.30;86.60;;;;;;5024582;28;20041;-79
2022/09/02 10:01:15;;;;;;;18.25;17.27;;;19.70;91.10;;;;;;5025910;28;20084;-79
2022/09/02 10:03:48;;;;;;;18.73;17.80;;;19.70;82.50;;;;;;5011547;28;20018;-79
2022/09/02 10:06:29;;;;;;;12.98;12.18;;;19.40;83.20;;;;;;5021782;28;20670;-79
2022/09/02 10:09:02;;;;;;;14.88;13.88;;;19.60;86.10;;;;;;5030963;28;20022;-79
2022/09/02 10:11:57;;;;;;;12.75;11.85;;;19.90;79.30;;;;;;5029668;28;20044;-79
2022/09/02 10:14:24;;;;;;;11.95;11.15;;;19.80;89.80;;;;;;5015619;28;20037;-79
2022/09/02 10:17:20;;;;;;;14.68;13.80;;;19.90;85.50;;;;;;5017657;28;20105;-79
2022/09/02 10:19:46;;;;;;;15.75;14.75;;;20.00;79.20;;;;;;5018672;28;20757;-79
2022/09/02 10:22:40;;;;;;;13.27;11.90;;;19.90;83.00;;;;;;5023238;28;20034;-79
2022/09/02 10:25:23;;;;;;;11.70;11.00;;;20.40;81.40;;;;;;5020165;28;20079;-80
2022/09/02 10:28:13;;;;;;;11.45;10.43;;;20.60;74.10;;;;;;5029091;28;20021;-80
2022/09/02 10:31:14;;;;;;;14.63;13.82;;;20.30;75.80;;;;;;5026255;28;20505;-80
2022/09/02 10:33:53;;;;;;;12.13;11.32;;;20.40;73.00;;;;;;5012797;28;20018;-79
2022/09/02 10:36:36;;;;;;;14.95;14.13;;;20.60;86.30;;;;;;5031355;28;20029;-79
2022/09/02 10:39:22;;;;;;;11.82;11.07;;;20.90;77.10;;;;;;5021375;28;20117;-81
2022/09/02 10:41:50;;;;;;;13.05;12.23;;;21.10;73.30;;;;;;5026457;28;20033;-79
2022/09/02 10:44:29;;;;;;;10.88;10.27;;;21.20;73.70;;;;;;5020579;28;20037;-80
2022/09/02 10:47:08;;;;;;;17.83;16.75;;;21.20;72.70;;;;;;5021500;28;20370;-80
2022/09/02 10:49:49;;;;;;;19.17;17.95;;;21.30;68.40;;;;;;5028995;28;20523;-79
2022/09/02 10:52:41;;;;;;;20.08;17.65;;;21.80;65.00;;;;;;5029279;28;20620;-80
2022/09/02 10:55:09;;;;;;;15.18;14.35;;;21.70;65.70;;;;;;5001701;28;20136;-79
2022/09/02 10:57:51;;;;;;;12.60;11.88;;;21.60;66.90;;;;;;5023457;28;20037;-79
2022/09/02 11:00:19;;;;;;;11.70;10.90;;;22.20;64.00;;;;;;5018190;28;20029;-79
2022/09/02 11:02:54;;;;;;;10.32;9.65;;;22.20;60.00;;;;;;5025314;28;20050;-79
2022/09/02 11:05:47;;;;;;;12.02;11.05;;;22.90;58.00;;;;;;5021474;28;20042;-79
2022/09/02 11:08:25;;;;;;;12.20;11.50;;;23.10;57.80;;;;;;5019048;28;20021;-80
2022/09/02 11:10:59;;;;;;;12.30;11.60;;;23.50;53.00;;;;;;5017685;28;20022;-79
2022/09/02 11:13:37;;;;;;;12.63;11.82;;;23.30;53.70;;;;;;5021418;28;20499;-79
2022/09/02 11:16:17;;;;;;;14.38;13.48;;;24.30;52.00;;;;;;5025290;28;20519;-79
2022/09/02 11:19:04;;;;;;;13.70;12.90;;;24.40;50.90;;;;;;5025989;28;20109;-79
2022/09/02 11:21:48;;;;;;;18.13;17.23;;;24.70;50.10;;;;;;5026540;28;20064;-79
2022/09/02 11:24:20;;;;;;;16.17;15.40;;;24.70;47.70;;;;;;5025836;28;20032;-79
2022/09/02 11:27:10;;;;;;;21.38;20.30;;;24.80;48.20;;;;;;5023477;28;20158;-79
2022/09/02 11:29:35;;;;;;;;;;;24.20;46.90;;;;;;5012281;28;20054;-79
2022/09/02 11:32:05;;;;;;;15.95;14.98;;;23.20;49.10;;;;;;5014091;28;19972;-80
2022/09/02 11:34:33;;;;;;;21.17;19.83;;;23.20;50.50;;;;;;5026632;28;20061;-79
2022/09/02 11:37:05;;;;;;;16.77;15.93;;;24.30;51.00;;;;;;5035609;28;20025;-78
2022/09/02 11:39:50;;;;;;;20.35;19.25;;;25.00;45.00;;;;;;5038750;28;20038;-80
2022/09/02 11:42:48;;;;;;;18.27;17.25;;;25.30;43.50;;;;;;5017284;28;20497;-78
2022/09/02 11:45:39;;;;;;;18.35;17.42;;;23.70;51.60;;;;;;5014767;28;20048;-79
2022/09/02 11:48:37;;;;;;;19.05;18.15;;;24.80;47.40;;;;;;5015677;28;20033;-79
2022/09/02 11:51:33;;;;;;;19.73;18.80;;;25.20;44.40;;;;;;5024656;28;20501;-79
2022/09/02 11:54:02;;;;;;;19.27;18.45;;;25.30;45.50;;;;;;5021941;28;20048;-79
2022/09/02 11:56:35;;;;;;;19.50;18.38;;;25.10;45.30;;;;;;5021747;28;20057;-79
2022/09/02 11:59:02;;;;;;;28.08;26.58;;;24.50;42.90;;;;;;5022095;28;20076;-79
2022/09/02 12:01:28;;;;;;;25.30;24.10;;;25.30;40.80;;;;;;5022412;28;20071;-79
2022/09/02 12:04:05;;;;;;;27.25;26.08;;;25.80;43.00;;;;;;5018047;28;20053;-79
2022/09/02 12:06:31;;;;;;;33.72;32.22;;;26.30;40.20;;;;;;5021206;28;20099;-78
2022/09/02 12:09:04;;;;;;;38.25;36.72;;;26.20;40.80;;;;;;5025472;28;20037;-80
2022/09/02 12:11:40;;;;;;;41.40;39.78;;;27.00;38.30;;;;;;4996495;28;20077;-79
2022/09/02 12:14:12;;;;;;;25.88;24.75;;;26.40;42.20;;;;;;5022352;28;20025;-79
2022/09/02 12:16:57;;;;;;;38.78;36.95;;;28.00;37.10;;;;;;5021771;28;20036;-79
2022/09/02 12:19:28;;;;;;;34.53;33.13;;;27.10;38.90;;;;;;5019289;28;20032;-79
2022/09/02 12:22:14;;;;;;;33.08;31.63;;;26.70;38.80;;;;;;5022704;28;20532;-79
2022/09/02 12:24:52;;;;;;;41.38;39.65;;;26.60;40.00;;;;;;5015149;28;20042;-79
2022/09/02 12:27:36;;;;;;;45.08;43.28;;;25.90;40.70;;;;;;5023785;28;20032;-79
2022/09/02 12:30:10;;;;;;;42.95;41.25;;;26.90;37.20;;;;;;5025219;28;20084;-79
2022/09/02 12:32:44;;;;;;;32.65;31.30;;;27.40;38.90;;;;;;5022667;28;20416;-80
2022/09/02 12:35:27;;;;;;;32.05;30.48;;;27.30;35.60;;;;;;5026279;28;20022;-80
2022/09/02 12:38:16;;;;;;;14.98;14.18;;;27.80;39.30;;;;;;5021022;28;20029;-79
2022/09/02 12:41:03;;;;;;;22.00;21.10;;;28.40;34.20;;;;;;5016049;28;20077;-81
2022/09/02 12:43:49;;;;;;;17.25;16.45;;;28.20;36.30;;;;;;5019081;28;20284;-79
2022/09/02 12:46:24;;;;;;;16.15;15.30;;;28.00;33.90;;;;;;5010508;28;20029;-79
2022/09/02 12:49:04;;;;;;;17.20;16.25;;;28.20;32.00;;;;;;5020072;28;20040;-80